createdAt,value
2022-11-27T00:01:13.069Z,101183.21
2022-11-27T00:03:42.182Z,101182.88
2022-11-27T00:06:17.856Z,101181.50
2022-11-27T00:08:45.997Z,101181.16
2022-11-27T00:11:24.043Z,101182.88
2022-11-27T00:13:51.410Z,101184.48
2022-11-27T00:16:19.824Z,101186.21
2022-11-27T00:18:47.508Z,101189.30
2022-11-27T00:21:23.780Z,101192.26
2022-11-27T00:23:52.594Z,101195.73
2022-11-27T00:26:19.884Z,101191.95
2022-11-27T00:28:47.120Z,101190.95
2022-11-27T00:31:20.273Z,101197.14
2022-11-27T00:33:47.750Z,101201.11
2022-11-27T00:36:15.679Z,101200.95
2022-11-27T00:38:42.499Z,101199.59
2022-11-27T00:41:20.068Z,101196.33
2022-11-27T00:43:47.937Z,101195.82
2022-11-27T00:46:22.809Z,101197.05
2022-11-27T00:48:54.316Z,101197.23
2022-11-27T00:51:22.885Z,101188.48
2022-11-27T00:53:50.602Z,101190.39
2022-11-27T00:56:30.183Z,101196.94
2022-11-27T00:58:57.450Z,101198.49
2022-11-27T01:01:27.995Z,101196.42
2022-11-27T01:03:56.614Z,101197.47
2022-11-27T01:06:24.008Z,101200.05
2022-11-27T01:08:50.943Z,101202.82
2022-11-27T01:11:25.190Z,101206.80
2022-11-27T01:13:52.074Z,101203.73
2022-11-27T01:16:22.017Z,101199.27
2022-11-27T01:18:50.670Z,101201.35
2022-11-27T01:21:20.247Z,101202.52
2022-11-27T01:23:48.558Z,101202.67
2022-11-27T01:26:17.282Z,101207.30
2022-11-27T01:28:44.508Z,101206.27
2022-11-27T01:31:14.907Z,101205.73
2022-11-27T01:33:42.417Z,101205.73
2022-11-27T01:36:10.861Z,101203.66
2022-11-27T01:38:37.804Z,101196.27
2022-11-27T01:41:27.186Z,101193.00
2022-11-27T01:44:03.047Z,101190.61
2022-11-27T01:46:51.193Z,101186.50
2022-11-27T01:49:33.528Z,101186.86
2022-11-27T01:52:04.691Z,101185.33
2022-11-27T01:54:39.242Z,101182.56
2022-11-27T01:57:15.016Z,101181.18
2022-11-27T01:59:42.331Z,101182.05
2022-11-27T02:02:09.152Z,101185.13
2022-11-27T02:04:36.128Z,101183.94
2022-11-27T02:07:03.034Z,101189.44
2022-11-27T02:09:30.668Z,101188.93
2022-11-27T02:12:00.430Z,101190.85
2022-11-27T02:15:04.443Z,101190.35
2022-11-27T02:17:51.431Z,101182.61
2022-11-27T02:20:37.061Z,101180.70
2022-11-27T02:23:06.448Z,101184.98
2022-11-27T02:26:01.635Z,101189.96
2022-11-27T02:29:05.634Z,101188.94
2022-11-27T02:31:50.275Z,101191.36
2022-11-27T02:34:42.109Z,101188.96
2022-11-27T02:37:20.725Z,101185.88
2022-11-27T02:40:01.240Z,101181.20
2022-11-27T02:42:32.749Z,101183.13
2022-11-27T02:45:12.015Z,101185.54
2022-11-27T02:47:43.252Z,101186.55
2022-11-27T02:50:16.355Z,101190.16
2022-11-27T02:52:44.893Z,101187.77
2022-11-27T02:55:16.695Z,101191.55
2022-11-27T02:57:45.301Z,101196.02
2022-11-27T03:00:13.276Z,101191.04
2022-11-27T03:02:46.634Z,101191.56
2022-11-27T03:05:19.539Z,101192.94
2022-11-27T03:08:01.015Z,101191.42
2022-11-27T03:10:57.128Z,101190.55
2022-11-27T03:13:25.399Z,101193.29
2022-11-27T03:15:58.245Z,101191.58
2022-11-27T03:18:42.522Z,101193.14
2022-11-27T03:21:18.545Z,101188.68
2022-11-27T03:23:45.301Z,101187.98
2022-11-27T03:26:12.096Z,101187.47
2022-11-27T03:28:40.749Z,101185.23
2022-11-27T03:31:07.639Z,101182.11
2022-11-27T03:33:34.497Z,101183.66
2022-11-27T03:36:01.243Z,101184.91
2022-11-27T03:38:28.110Z,101184.05
2022-11-27T03:41:05.531Z,101184.24
2022-11-27T03:43:40.142Z,101188.52
2022-11-27T03:46:16.140Z,101191.61
2022-11-27T03:48:58.745Z,101198.31
2022-11-27T03:51:40.516Z,101199.88
2022-11-27T03:54:50.032Z,101203.48
2022-11-27T03:57:19.849Z,101209.01
2022-11-27T03:59:50.986Z,101210.72
2022-11-27T04:02:28.638Z,101213.29
2022-11-27T04:04:55.500Z,101212.80
2022-11-27T04:07:22.374Z,101214.17
2022-11-27T04:09:49.161Z,101218.84
2022-11-27T04:12:15.956Z,101217.96
2022-11-27T04:14:42.732Z,101217.98
2022-11-27T04:17:09.587Z,101210.04
2022-11-27T04:19:36.390Z,101212.98
2022-11-27T04:22:03.156Z,101207.80
2022-11-27T04:24:29.910Z,101208.33
2022-11-27T04:26:56.685Z,101204.40
2022-11-27T04:29:23.484Z,101210.25
2022-11-27T04:31:50.350Z,101208.32
2022-11-27T04:34:17.293Z,101210.90
2022-11-27T04:36:45.747Z,101209.84
2022-11-27T04:39:13.001Z,101207.10
2022-11-27T04:41:39.973Z,101208.31
2022-11-27T04:44:06.766Z,101203.31
2022-11-27T04:46:33.636Z,101201.27
2022-11-27T04:49:00.427Z,101200.78
2022-11-27T04:51:27.191Z,101200.27
2022-11-27T04:53:54.078Z,101200.45
2022-11-27T04:56:21.320Z,101203.00
2022-11-27T04:58:48.066Z,101204.17
2022-11-27T05:01:15.441Z,101201.58
2022-11-27T05:03:42.387Z,101198.45
2022-11-27T05:06:09.630Z,101197.75
2022-11-27T05:08:36.334Z,101198.45
2022-11-27T05:11:05.990Z,101199.98
2022-11-27T05:13:33.669Z,101196.88
2022-11-27T05:16:00.603Z,101196.89
2022-11-27T05:18:27.484Z,101191.04
2022-11-27T05:20:59.289Z,101196.36
2022-11-27T05:23:26.941Z,101198.93
2022-11-27T05:25:54.436Z,101202.52
2022-11-27T05:28:26.397Z,101205.98
2022-11-27T05:30:54.346Z,101209.23
2022-11-27T05:33:21.351Z,101210.59
2022-11-27T05:35:48.112Z,101209.92
2022-11-27T05:38:14.921Z,101211.31
2022-11-27T05:40:41.885Z,101213.54
2022-11-27T05:43:08.710Z,101213.00
2022-11-27T05:45:37.172Z,101216.23
2022-11-27T05:48:04.177Z,101214.33
2022-11-27T05:50:31.086Z,101216.23
2022-11-27T05:52:59.088Z,101221.19
2022-11-27T05:55:26.350Z,101224.58
2022-11-27T05:57:53.207Z,101228.86
2022-11-27T06:00:20.240Z,101228.37
2022-11-27T06:02:47.153Z,101229.43
2022-11-27T06:05:14.173Z,101234.56
2022-11-27T06:07:40.999Z,101233.04
2022-11-27T06:10:08.113Z,101233.73
2022-11-27T06:12:35.045Z,101234.55
2022-11-27T06:15:02.643Z,101235.88
2022-11-27T06:17:29.543Z,101241.56
2022-11-27T06:19:56.379Z,101244.64
2022-11-27T06:22:23.305Z,101242.55
2022-11-27T06:24:50.361Z,101239.59
2022-11-27T06:27:17.102Z,101242.84
2022-11-27T06:29:44.022Z,101244.71
2022-11-27T06:32:10.974Z,101246.23
2022-11-27T06:34:38.017Z,101247.75
2022-11-27T06:37:08.070Z,101250.80
2022-11-27T06:39:38.627Z,101252.52
2022-11-27T06:42:05.546Z,101256.94
2022-11-27T06:44:32.314Z,101254.48
2022-11-27T06:46:59.162Z,101250.81
2022-11-27T06:49:25.924Z,101248.03
2022-11-27T06:51:52.751Z,101244.70
2022-11-27T06:54:19.574Z,101242.05
2022-11-27T06:56:49.458Z,101234.63
2022-11-27T06:59:16.643Z,101241.18
2022-11-27T07:01:43.535Z,101244.52
2022-11-27T07:04:12.352Z,101245.77
2022-11-27T07:06:40.377Z,101248.73
2022-11-27T07:09:07.591Z,101251.38
2022-11-27T07:11:34.549Z,101251.16
2022-11-27T07:14:03.601Z,101252.48
2022-11-27T07:16:32.708Z,101254.48
2022-11-27T07:19:06.132Z,101255.10
2022-11-27T07:21:35.253Z,101255.36
2022-11-27T07:24:02.141Z,101254.41
2022-11-27T07:26:30.291Z,101251.45
2022-11-27T07:28:57.724Z,101253.27
2022-11-27T07:31:27.745Z,101250.27
2022-11-27T07:33:55.653Z,101244.74
2022-11-27T07:36:25.310Z,101241.94
2022-11-27T07:38:52.298Z,101236.81
2022-11-27T07:41:19.529Z,101227.58
2022-11-27T07:43:46.815Z,101222.16
2022-11-27T07:46:16.797Z,101220.84
2022-11-27T07:48:43.917Z,101222.83
2022-11-27T07:51:13.565Z,101223.92
2022-11-27T07:53:41.058Z,101226.88
2022-11-27T07:56:11.542Z,101224.01
2022-11-27T07:58:38.429Z,101217.88
2022-11-27T08:01:09.976Z,101215.32
2022-11-27T08:03:37.539Z,101220.48
2022-11-27T08:06:05.306Z,101223.55
2022-11-27T08:08:32.568Z,101228.27
2022-11-27T08:10:59.654Z,101226.16
2022-11-27T08:13:26.456Z,101230.58
2022-11-27T08:15:53.750Z,101235.91
2022-11-27T08:18:20.653Z,101234.04
2022-11-27T08:20:47.490Z,101238.34
2022-11-27T08:23:14.258Z,101239.58
2022-11-27T08:25:41.061Z,101242.52
2022-11-27T08:28:07.855Z,101243.95
2022-11-27T08:30:34.628Z,101245.70
2022-11-27T08:33:01.481Z,101246.08
2022-11-27T08:35:28.218Z,101246.80
2022-11-27T08:37:55.147Z,101247.70
2022-11-27T08:40:22.097Z,101239.09
2022-11-27T08:42:48.925Z,101241.13
2022-11-27T08:45:15.796Z,101241.27
2022-11-27T08:47:43.023Z,101233.81
2022-11-27T08:50:10.498Z,101233.76
2022-11-27T08:52:37.364Z,101233.64
2022-11-27T08:55:04.847Z,101233.43
2022-11-27T08:57:31.649Z,101233.24
2022-11-27T08:59:58.455Z,101230.88
2022-11-27T09:02:25.266Z,101229.64
2022-11-27T09:04:52.247Z,101226.70
2022-11-27T09:07:19.086Z,101228.45
2022-11-27T09:09:45.999Z,101222.95
2022-11-27T09:12:13.257Z,101216.77
2022-11-27T09:14:40.268Z,101211.39
2022-11-27T09:17:07.390Z,101212.23
2022-11-27T09:19:34.554Z,101212.93
2022-11-27T09:22:01.419Z,101211.27
2022-11-27T09:24:28.245Z,101212.72
2022-11-27T09:26:55.119Z,101211.95
2022-11-27T09:29:22.184Z,101209.62
2022-11-27T09:31:50.438Z,101204.83
2022-11-27T09:34:17.735Z,101203.82
2022-11-27T09:36:44.676Z,101204.88
2022-11-27T09:39:13.242Z,101205.56
2022-11-27T09:41:53.063Z,101200.87
2022-11-27T09:44:59.415Z,101198.98
2022-11-27T09:47:43.061Z,101193.86
2022-11-27T09:50:25.086Z,101195.87
2022-11-27T09:53:00.819Z,101187.86
2022-11-27T09:55:41.067Z,101198.95
2022-11-27T09:58:19.677Z,101194.12
2022-11-27T10:00:47.403Z,101200.90
2022-11-27T10:03:18.137Z,101202.45
2022-11-27T10:05:44.948Z,101201.13
2022-11-27T10:09:00.136Z,101194.73
2022-11-27T10:11:27.049Z,101190.17
2022-11-27T10:14:27.903Z,101188.58
2022-11-27T10:16:58.910Z,101184.39
2022-11-27T10:19:37.787Z,101184.39
2022-11-27T10:22:10.051Z,101183.00
2022-11-27T10:24:45.611Z,101178.42
2022-11-27T10:27:44.865Z,101182.52
2022-11-27T10:30:17.661Z,101180.41
2022-11-27T10:32:55.040Z,101179.32
2022-11-27T10:35:32.224Z,101180.28
2022-11-27T10:38:16.822Z,101184.77
2022-11-27T10:40:58.584Z,101183.73
2022-11-27T10:43:25.547Z,101182.87
2022-11-27T10:46:15.115Z,101183.03
2022-11-27T10:48:42.042Z,101176.73
2022-11-27T10:51:28.769Z,101173.34
2022-11-27T10:53:59.851Z,101167.80
2022-11-27T10:56:47.212Z,101171.88
2022-11-27T10:59:33.159Z,101173.25
2022-11-27T11:02:05.160Z,101174.61
2022-11-27T11:04:39.730Z,101161.86
2022-11-27T11:07:23.254Z,101169.06
2022-11-27T11:09:50.301Z,101165.76
2022-11-27T11:12:20.694Z,101163.66
2022-11-27T11:14:56.437Z,101169.19
2022-11-27T11:17:28.830Z,101167.06
2022-11-27T11:19:55.838Z,101165.77
2022-11-27T11:22:24.010Z,101164.70
2022-11-27T11:24:52.953Z,101156.66
2022-11-27T11:27:25.887Z,101157.51
2022-11-27T11:29:56.012Z,101152.52
2022-11-27T11:32:27.055Z,101149.63
2022-11-27T11:35:07.936Z,101153.14
2022-11-27T11:37:39.489Z,101152.33
2022-11-27T11:40:16.096Z,101149.58
2022-11-27T11:43:00.149Z,101146.77
2022-11-27T11:45:32.669Z,101145.48
2022-11-27T11:48:03.588Z,101148.77
2022-11-27T11:50:47.456Z,101145.38
2022-11-27T11:53:31.427Z,101145.39
2022-11-27T11:56:25.544Z,101147.66
2022-11-27T11:59:27.010Z,101148.06
2022-11-27T12:01:59.908Z,101149.48
2022-11-27T12:04:48.786Z,101151.60
2022-11-27T12:07:52.839Z,101152.35
2022-11-27T12:10:27.516Z,101147.86
2022-11-27T12:13:03.834Z,101153.04
2022-11-27T12:16:10.577Z,101155.23
2022-11-27T12:19:15.018Z,101154.02
2022-11-27T12:21:53.955Z,101155.83
2022-11-27T12:24:51.331Z,101161.04
2022-11-27T12:27:47.427Z,101161.35
2022-11-27T12:30:19.230Z,101159.52
2022-11-27T12:32:58.509Z,101161.26
2022-11-27T12:35:44.260Z,101160.63
2022-11-27T12:38:20.153Z,101151.35
2022-11-27T12:41:19.039Z,101147.96
2022-11-27T12:43:55.674Z,101150.34
2022-11-27T12:46:39.550Z,101151.86
2022-11-27T12:49:21.489Z,101152.39
2022-11-27T12:52:11.307Z,101150.84
2022-11-27T12:54:46.062Z,101153.61
2022-11-27T12:57:36.121Z,101154.83
2022-11-27T13:00:14.589Z,101157.71
2022-11-27T13:03:02.950Z,101157.46
2022-11-27T13:05:37.932Z,101159.36
2022-11-27T13:08:21.123Z,101158.80
2022-11-27T13:10:59.992Z,101164.27
2022-11-27T13:13:53.471Z,101167.09
2022-11-27T13:16:24.821Z,101167.14
2022-11-27T13:18:57.938Z,101166.69
2022-11-27T13:21:29.710Z,101171.94
2022-11-27T13:24:00.595Z,101174.77
2022-11-27T13:26:34.596Z,101172.95
2022-11-27T13:29:08.380Z,101172.48
2022-11-27T13:31:38.833Z,101172.52
2022-11-27T13:34:09.676Z,101171.33
2022-11-27T13:36:44.260Z,101175.52
2022-11-27T13:39:27.677Z,101175.09
2022-11-27T13:42:21.056Z,101175.50
2022-11-27T13:45:04.187Z,101180.45
2022-11-27T13:47:40.601Z,101180.32
2022-11-27T13:50:11.158Z,101178.66
2022-11-27T13:53:02.687Z,101176.83
2022-11-27T13:55:38.693Z,101178.98
2022-11-27T13:58:07.586Z,101173.98
2022-11-27T14:00:43.954Z,101175.73
2022-11-27T14:03:26.336Z,101173.67
2022-11-27T14:05:53.984Z,101178.05
2022-11-27T14:08:31.487Z,101177.40
2022-11-27T14:11:00.135Z,101178.67
2022-11-27T14:13:38.206Z,101180.78
2022-11-27T14:16:22.233Z,101184.11
2022-11-27T14:18:51.663Z,101183.10
2022-11-27T14:21:43.532Z,101177.91
2022-11-27T14:24:26.791Z,101179.48
2022-11-27T14:26:54.217Z,101171.86
2022-11-27T14:29:22.444Z,101169.63
2022-11-27T14:32:00.548Z,101175.00
2022-11-27T14:34:34.029Z,101181.98
2022-11-27T14:37:01.102Z,101174.96
2022-11-27T14:39:30.585Z,101176.10
2022-11-27T14:42:01.257Z,101179.61
2022-11-27T14:44:29.041Z,101182.23
2022-11-27T14:46:59.926Z,101180.73
2022-11-27T14:49:29.651Z,101184.57
2022-11-27T14:52:01.593Z,101178.93
2022-11-27T14:54:32.239Z,101176.23
2022-11-27T14:56:59.241Z,101173.20
2022-11-27T14:59:26.448Z,101169.99
2022-11-27T15:02:17.058Z,101170.98
2022-11-27T15:04:46.100Z,101173.20
2022-11-27T15:07:19.686Z,101176.63
2022-11-27T15:09:49.881Z,101180.05
2022-11-27T15:12:30.237Z,101177.35
2022-11-27T15:15:09.820Z,101182.05
2022-11-27T15:17:39.637Z,101182.97
2022-11-27T15:20:17.154Z,101182.48
2022-11-27T15:22:52.759Z,101179.58
2022-11-27T15:25:36.155Z,101180.30
2022-11-27T15:28:19.086Z,101181.23
2022-11-27T15:30:46.207Z,101183.67
2022-11-27T15:33:26.277Z,101188.16
2022-11-27T15:35:55.006Z,101186.76
2022-11-27T15:38:22.162Z,101193.44
2022-11-27T15:41:00.325Z,101192.00
2022-11-27T15:43:27.148Z,101189.52
2022-11-27T15:45:54.335Z,101191.27
2022-11-27T15:48:22.058Z,101188.73
2022-11-27T15:50:51.828Z,101188.92
2022-11-27T15:53:18.968Z,101188.59
2022-11-27T15:55:45.774Z,101185.86
2022-11-27T15:58:12.605Z,101186.71
2022-11-27T16:00:40.123Z,101183.77
2022-11-27T16:03:06.956Z,101182.49
2022-11-27T16:05:33.713Z,101182.99
2022-11-27T16:08:00.932Z,101177.61
2022-11-27T16:10:27.814Z,101175.20
2022-11-27T16:12:54.840Z,101181.71
2022-11-27T16:15:23.507Z,101185.86
2022-11-27T16:17:53.237Z,101188.80
2022-11-27T16:20:20.288Z,101190.02
2022-11-27T16:22:47.052Z,101193.29
2022-11-27T16:25:16.768Z,101198.44
2022-11-27T16:27:43.673Z,101193.95
2022-11-27T16:30:11.277Z,101200.66
2022-11-27T16:32:39.331Z,101202.71
2022-11-27T16:35:07.067Z,101205.80
2022-11-27T16:37:34.320Z,101203.04
2022-11-27T16:40:01.059Z,101211.48
2022-11-27T16:42:28.221Z,101218.71
2022-11-27T16:44:55.155Z,101217.67
2022-11-27T16:47:22.189Z,101224.56
2022-11-27T16:49:49.319Z,101224.38
2022-11-27T16:52:16.588Z,101217.31
2022-11-27T16:54:43.709Z,101214.38
2022-11-27T16:57:11.158Z,101217.49
2022-11-27T16:59:38.005Z,101217.33
2022-11-27T17:02:05.313Z,101221.83
2022-11-27T17:04:33.392Z,101225.48
2022-11-27T17:07:00.521Z,101223.96
2022-11-27T17:09:28.781Z,101222.61
2022-11-27T17:11:55.497Z,101222.98
2022-11-27T17:14:26.280Z,101217.33
2022-11-27T17:16:53.178Z,101206.88
2022-11-27T17:19:23.570Z,101208.63
2022-11-27T17:21:50.394Z,101210.90
2022-11-27T17:24:17.701Z,101210.27
2022-11-27T17:26:48.271Z,101217.54
2022-11-27T17:29:18.587Z,101224.98
2022-11-27T17:31:45.396Z,101229.04
2022-11-27T17:34:15.269Z,101233.73
2022-11-27T17:36:44.498Z,101232.39
2022-11-27T17:39:14.211Z,101230.86
2022-11-27T17:41:44.239Z,101228.84
2022-11-27T17:44:12.054Z,101226.48
2022-11-27T17:46:40.498Z,101224.50
2022-11-27T17:49:08.034Z,101226.14
2022-11-27T17:51:36.337Z,101225.93
2022-11-27T17:54:04.879Z,101219.83
2022-11-27T17:56:33.306Z,101218.36
2022-11-27T17:59:00.845Z,101221.18
2022-11-27T18:01:29.697Z,101223.48
2022-11-27T18:04:03.008Z,101222.66
2022-11-27T18:06:31.775Z,101227.16
2022-11-27T18:08:59.557Z,101226.88
2022-11-27T18:11:30.115Z,101230.50
2022-11-27T18:13:59.620Z,101226.05
2022-11-27T18:16:33.596Z,101224.49
2022-11-27T18:19:03.677Z,101228.14
2022-11-27T18:21:31.205Z,101229.71
2022-11-27T18:24:22.416Z,101228.71
2022-11-27T18:27:07.175Z,101227.17
2022-11-27T18:29:34.097Z,101226.15
2022-11-27T18:32:01.085Z,101227.20
2022-11-27T18:34:28.329Z,101229.45
2022-11-27T18:36:56.702Z,101227.06
2022-11-27T18:39:23.735Z,101225.50
2022-11-27T18:41:50.969Z,101225.51
2022-11-27T18:44:17.945Z,101227.95
2022-11-27T18:46:44.779Z,101230.02
2022-11-27T18:49:12.533Z,101229.70
2022-11-27T18:51:39.381Z,101228.84
2022-11-27T18:54:07.187Z,101225.95
2022-11-27T18:56:36.578Z,101216.46
2022-11-27T18:59:05.268Z,101217.70
2022-11-27T19:01:41.380Z,101216.50
2022-11-27T19:04:10.838Z,101221.36
2022-11-27T19:06:39.213Z,101223.11
2022-11-27T19:09:06.499Z,101227.26
2022-11-27T19:11:34.632Z,101228.48
2022-11-27T19:14:04.314Z,101226.27
2022-11-27T19:16:41.285Z,101222.66
2022-11-27T19:19:16.842Z,101223.72
2022-11-27T19:21:56.221Z,101221.35
2022-11-27T19:24:22.975Z,101219.83
2022-11-27T19:26:54.261Z,101219.67
2022-11-27T19:29:21.263Z,101223.33
2022-11-27T19:31:48.086Z,101221.27
2022-11-27T19:34:15.004Z,101223.89
2022-11-27T19:36:41.983Z,101221.83
2022-11-27T19:39:14.561Z,101225.79
2022-11-27T19:41:42.852Z,101224.95
2022-11-27T19:44:12.743Z,101232.85
2022-11-27T19:46:40.613Z,101233.86
2022-11-27T19:49:12.311Z,101237.45
2022-11-27T19:51:40.900Z,101235.03
2022-11-27T19:54:12.185Z,101230.94
2022-11-27T19:56:41.821Z,101229.55
2022-11-27T19:59:09.599Z,101228.52
2022-11-27T20:01:39.951Z,101230.95
2022-11-27T20:04:08.918Z,101231.83
2022-11-27T20:06:35.792Z,101229.09
2022-11-27T20:09:05.053Z,101225.85
2022-11-27T20:11:35.279Z,101224.33
2022-11-27T20:14:04.525Z,101226.58
2022-11-27T20:16:33.552Z,101221.63
2022-11-27T20:19:04.805Z,101222.67
2022-11-27T20:21:35.973Z,101225.27
2022-11-27T20:24:03.686Z,101223.58
2022-11-27T20:26:30.664Z,101221.02
2022-11-27T20:28:58.465Z,101223.27
2022-11-27T20:31:31.125Z,101215.92
2022-11-27T20:34:00.926Z,101218.72
2022-11-27T20:36:29.962Z,101222.54
2022-11-27T20:38:59.693Z,101223.42
2022-11-27T20:41:27.928Z,101220.02
2022-11-27T20:43:58.166Z,101218.13
2022-11-27T20:46:25.631Z,101220.19
2022-11-27T20:48:53.734Z,101217.14
2022-11-27T20:51:26.945Z,101215.15
2022-11-27T20:53:54.042Z,101216.04
2022-11-27T20:56:20.902Z,101211.61
2022-11-27T20:58:48.466Z,101210.98
2022-11-27T21:01:22.364Z,101204.23
2022-11-27T21:03:51.756Z,101210.58
2022-11-27T21:06:21.348Z,101211.48
2022-11-27T21:08:49.296Z,101210.14
2022-11-27T21:11:25.487Z,101212.04
2022-11-27T21:14:01.549Z,101210.36
2022-11-27T21:16:31.975Z,101210.87
2022-11-27T21:19:02.958Z,101210.91
2022-11-27T21:21:30.825Z,101209.55
2022-11-27T21:23:59.033Z,101207.34
2022-11-27T21:26:26.552Z,101203.92
2022-11-27T21:28:53.349Z,101200.67
2022-11-27T21:31:23.577Z,101200.86
2022-11-27T21:33:52.905Z,101203.81
2022-11-27T21:36:21.888Z,101206.40
2022-11-27T21:38:49.104Z,101201.91
2022-11-27T21:41:17.236Z,101201.05
2022-11-27T21:43:45.183Z,101199.85
2022-11-27T21:46:16.688Z,101203.11
2022-11-27T21:48:44.946Z,101202.60
2022-11-27T21:51:14.494Z,101200.67
2022-11-27T21:53:43.023Z,101204.26
2022-11-27T21:56:12.156Z,101205.27
2022-11-27T21:58:39.441Z,101205.23
2022-11-27T22:01:10.937Z,101204.52
2022-11-27T22:03:42.500Z,101201.91
2022-11-27T22:06:12.538Z,101200.00
2022-11-27T22:08:39.817Z,101199.80
2022-11-27T22:11:12.411Z,101195.83
2022-11-27T22:13:40.982Z,101196.86
2022-11-27T22:16:12.813Z,101195.65
2022-11-27T22:18:39.835Z,101196.52
2022-11-27T22:21:10.128Z,101197.57
2022-11-27T22:23:37.708Z,101197.24
2022-11-27T22:26:07.907Z,101193.98
2022-11-27T22:28:35.960Z,101193.48
2022-11-27T22:31:17.480Z,101195.20
2022-11-27T22:33:45.684Z,101195.58
2022-11-27T22:36:19.288Z,101195.61
2022-11-27T22:38:48.030Z,101196.48
2022-11-27T22:41:15.817Z,101194.96
2022-11-27T22:43:43.629Z,101195.29
2022-11-27T22:46:14.731Z,101191.83
2022-11-27T22:48:41.891Z,101189.40
2022-11-27T22:51:09.209Z,101186.64
2022-11-27T22:53:37.227Z,101186.77
2022-11-27T22:56:11.521Z,101190.05
2022-11-27T22:58:41.950Z,101191.75
2022-11-27T23:01:18.938Z,101189.87
2022-11-27T23:03:46.737Z,101193.27
2022-11-27T23:06:15.776Z,101193.42
2022-11-27T23:08:44.892Z,101192.91
2022-11-27T23:11:21.883Z,101190.83
2022-11-27T23:13:50.060Z,101188.75
2022-11-27T23:16:18.046Z,101189.43
2022-11-27T23:18:45.469Z,101188.90
2022-11-27T23:21:14.864Z,101185.26
2022-11-27T23:23:42.296Z,101186.26
2022-11-27T23:26:18.149Z,101183.66
2022-11-27T23:28:47.224Z,101183.32
2022-11-27T23:31:29.998Z,101184.52
2022-11-27T23:34:01.039Z,101186.23
2022-11-27T23:36:28.943Z,101183.00
2022-11-27T23:38:56.165Z,101184.40
2022-11-27T23:41:24.395Z,101179.78
2022-11-27T23:43:52.818Z,101176.53
2022-11-27T23:46:21.722Z,101175.36
2022-11-27T23:48:48.825Z,101178.13
2022-11-27T23:51:24.117Z,101178.31
2022-11-27T23:53:51.608Z,101179.52
2022-11-27T23:56:30.244Z,101177.83
2022-11-27T23:58:57.788Z,101174.05
